createdAt,value
2023-11-12T00:01:13.894Z,10.60
2023-11-12T00:03:43.608Z,11.05
2023-11-12T00:06:12.153Z,9.95
2023-11-12T00:08:40.456Z,11.50
2023-11-12T00:11:08.516Z,10.00
2023-11-12T00:13:36.404Z,10.57
2023-11-12T00:16:04.350Z,10.48
2023-11-12T00:18:32.177Z,10.15
2023-11-12T00:21:01.401Z,10.95
2023-11-12T00:23:29.269Z,10.23
2023-11-12T00:25:57.160Z,10.18
2023-11-12T00:28:25.282Z,9.68
2023-11-12T00:30:53.708Z,10.60
2023-11-12T00:33:22.529Z,10.13
2023-11-12T00:35:50.418Z,10.13
2023-11-12T00:38:19.732Z,10.23
2023-11-12T00:40:47.865Z,9.73
2023-11-12T00:43:16.488Z,10.20
2023-11-12T00:45:44.715Z,9.95
2023-11-12T00:48:12.686Z,10.05
2023-11-12T00:50:40.501Z,10.50
2023-11-12T00:53:08.376Z,10.35
2023-11-12T00:55:37.540Z,9.25
2023-11-12T00:58:05.346Z,9.02
2023-11-12T01:00:35.565Z,9.30
2023-11-12T01:03:04.154Z,9.23
2023-11-12T01:05:32.144Z,8.88
2023-11-12T01:08:00.049Z,8.38
2023-11-12T01:10:27.952Z,9.05
2023-11-12T01:12:57.531Z,8.55
2023-11-12T01:15:25.423Z,8.18
2023-11-12T01:17:53.229Z,8.98
2023-11-12T01:20:21.139Z,8.50
2023-11-12T01:22:49.089Z,8.55
2023-11-12T01:25:17.331Z,8.63
2023-11-12T01:27:45.118Z,8.73
2023-11-12T01:30:16.188Z,7.95
2023-11-12T01:32:44.021Z,8.05
2023-11-12T01:35:12.075Z,7.90
2023-11-12T01:37:39.936Z,7.65
2023-11-12T01:40:09.723Z,7.95
2023-11-12T01:42:37.616Z,8.13
2023-11-12T01:45:06.651Z,8.02
2023-11-12T01:47:35.964Z,8.40
2023-11-12T01:50:04.987Z,8.18
2023-11-12T01:52:34.019Z,7.45
2023-11-12T01:55:03.012Z,8.40
2023-11-12T01:57:34.833Z,7.43
2023-11-12T02:00:11.296Z,7.18
2023-11-12T02:02:45.749Z,7.30
2023-11-12T02:05:13.763Z,7.22
2023-11-12T02:07:43.408Z,7.30
2023-11-12T02:10:14.837Z,7.18
2023-11-12T02:12:45.872Z,7.38
2023-11-12T02:15:16.459Z,7.60
2023-11-12T02:17:47.782Z,7.47
2023-11-12T02:20:16.687Z,7.60
2023-11-12T02:22:45.354Z,7.35
2023-11-12T02:25:15.433Z,7.38
2023-11-12T02:27:46.082Z,8.20
2023-11-12T02:30:14.786Z,7.95
2023-11-12T02:32:43.517Z,7.90
2023-11-12T02:35:11.745Z,7.43
2023-11-12T02:37:39.914Z,7.85
2023-11-12T02:40:09.532Z,8.30
2023-11-12T02:42:39.846Z,8.70
2023-11-12T02:45:11.832Z,8.50
2023-11-12T02:47:39.790Z,8.43
2023-11-12T02:50:27.645Z,8.88
2023-11-12T02:52:57.559Z,9.02
2023-11-12T02:55:26.200Z,9.30
2023-11-12T02:57:56.316Z,8.43
2023-11-12T03:00:28.840Z,9.38
2023-11-12T03:02:59.206Z,9.15
2023-11-12T03:05:27.910Z,9.35
2023-11-12T03:07:56.792Z,8.93
2023-11-12T03:10:25.962Z,9.43
2023-11-12T03:12:54.525Z,8.95
2023-11-12T03:15:24.937Z,8.55
2023-11-12T03:17:53.659Z,8.80
2023-11-12T03:20:22.142Z,9.07
2023-11-12T03:22:50.470Z,8.85
2023-11-12T03:25:18.316Z,9.13
2023-11-12T03:27:46.163Z,9.13
2023-11-12T03:30:15.944Z,9.20
2023-11-12T03:32:45.778Z,9.88
2023-11-12T03:35:13.612Z,10.68
2023-11-12T03:37:41.442Z,10.63
2023-11-12T03:40:10.457Z,11.80
2023-11-12T03:42:38.357Z,10.80
2023-11-12T03:45:07.653Z,10.70
2023-11-12T03:47:35.514Z,10.57
2023-11-12T03:50:05.226Z,11.40
2023-11-12T03:52:33.080Z,11.00
2023-11-12T03:55:00.884Z,11.57
2023-11-12T03:57:28.788Z,11.32
2023-11-12T03:59:56.620Z,10.63
2023-11-12T04:02:24.578Z,12.13
2023-11-12T04:04:53.486Z,11.57
2023-11-12T04:07:24.591Z,11.60
2023-11-12T04:09:52.422Z,11.70
2023-11-12T04:12:20.376Z,11.07
2023-11-12T04:14:48.416Z,11.35
2023-11-12T04:17:16.376Z,12.25
2023-11-12T04:19:44.715Z,12.02
2023-11-12T04:22:12.797Z,11.35
2023-11-12T04:24:42.068Z,12.27
2023-11-12T04:27:10.045Z,12.05
2023-11-12T04:29:37.861Z,12.25
2023-11-12T04:32:05.890Z,12.38
2023-11-12T04:34:33.762Z,12.02
2023-11-12T04:37:01.638Z,11.77
2023-11-12T04:39:29.532Z,12.13
2023-11-12T04:41:58.750Z,11.73
2023-11-12T04:44:26.736Z,11.60
2023-11-12T04:46:55.057Z,12.30
2023-11-12T04:49:23.155Z,11.60
2023-11-12T04:51:50.988Z,13.02
2023-11-12T04:54:19.618Z,12.75
2023-11-12T04:56:47.710Z,13.80
2023-11-12T04:59:17.507Z,13.15
2023-11-12T05:01:45.369Z,14.10
2023-11-12T05:04:13.285Z,14.90
2023-11-12T05:06:41.540Z,13.38
2023-11-12T05:09:10.164Z,14.63
2023-11-12T05:11:39.525Z,14.20
2023-11-12T05:14:11.058Z,14.35
2023-11-12T05:16:43.323Z,14.68
2023-11-12T05:19:11.264Z,14.73
2023-11-12T05:21:43.289Z,16.30
2023-11-12T05:24:11.298Z,15.10
2023-11-12T05:26:39.231Z,15.80
2023-11-12T05:29:07.126Z,14.77
2023-11-12T05:31:35.533Z,14.45
2023-11-12T05:34:04.904Z,15.93
2023-11-12T05:36:33.247Z,15.57
2023-11-12T05:39:01.305Z,15.35
2023-11-12T05:41:29.713Z,15.18
2023-11-12T05:43:57.529Z,14.95
2023-11-12T05:46:25.430Z,14.85
2023-11-12T05:48:53.287Z,15.63
2023-11-12T05:51:22.960Z,15.70
2023-11-12T05:53:50.899Z,15.10
2023-11-12T05:56:19.380Z,14.63
2023-11-12T05:58:47.175Z,14.55
2023-11-12T06:01:15.700Z,14.50
2023-11-12T06:03:43.553Z,14.75
2023-11-12T06:06:11.430Z,15.35
2023-11-12T06:08:41.228Z,14.82
2023-11-12T06:11:09.056Z,14.88
2023-11-12T06:13:37.142Z,14.35
2023-11-12T06:16:05.458Z,12.70
2023-11-12T06:18:33.486Z,12.73
2023-11-12T06:21:01.501Z,12.05
2023-11-12T06:23:29.306Z,12.25
2023-11-12T06:25:58.450Z,12.32
2023-11-12T06:28:27.835Z,12.10
2023-11-12T06:30:57.445Z,11.48
2023-11-12T06:33:25.630Z,11.18
2023-11-12T06:35:53.693Z,12.07
2023-11-12T06:38:21.521Z,11.73
2023-11-12T06:40:49.675Z,10.57
2023-11-12T06:43:18.914Z,10.93
2023-11-12T06:45:46.863Z,10.18
2023-11-12T06:48:14.768Z,9.70
2023-11-12T06:50:42.677Z,9.32
2023-11-12T06:53:11.619Z,9.43
2023-11-12T06:55:39.678Z,9.15
2023-11-12T06:58:07.475Z,8.75
2023-11-12T07:00:37.582Z,8.93
2023-11-12T07:03:06.013Z,8.45
2023-11-12T07:05:33.821Z,7.90
2023-11-12T07:08:01.786Z,8.55
2023-11-12T07:10:30.013Z,8.45
2023-11-12T07:12:58.506Z,9.32
2023-11-12T07:15:26.797Z,8.23
2023-11-12T07:17:55.963Z,8.15
2023-11-12T07:20:29.377Z,7.75
2023-11-12T07:22:57.705Z,7.32
2023-11-12T07:25:26.096Z,8.35
2023-11-12T07:27:54.120Z,8.20
2023-11-12T07:30:22.154Z,7.97
2023-11-12T07:32:51.275Z,7.53
2023-11-12T07:35:20.649Z,8.20
2023-11-12T07:37:48.384Z,7.90
2023-11-12T07:40:16.917Z,8.32
2023-11-12T07:42:44.893Z,8.65
2023-11-12T07:45:17.290Z,8.65
2023-11-12T07:47:48.986Z,8.50
2023-11-12T07:50:17.112Z,7.57
2023-11-12T07:52:47.109Z,7.90
2023-11-12T07:55:15.029Z,8.73
2023-11-12T07:57:42.870Z,8.40
2023-11-12T08:00:13.982Z,7.63
2023-11-12T08:02:43.721Z,8.35
2023-11-12T08:05:13.232Z,8.02
2023-11-12T08:07:41.508Z,8.55
2023-11-12T08:10:11.806Z,8.27
2023-11-12T08:12:40.158Z,7.97
2023-11-12T08:15:13.135Z,7.90
2023-11-12T08:17:41.474Z,7.72
2023-11-12T08:20:11.681Z,7.57
2023-11-12T08:22:39.473Z,6.75
2023-11-12T08:25:10.675Z,7.10
2023-11-12T08:27:41.206Z,6.50
2023-11-12T08:30:10.076Z,6.93
2023-11-12T08:32:37.972Z,6.53
2023-11-12T08:35:06.641Z,5.68
2023-11-12T08:37:34.606Z,6.35
2023-11-12T08:40:03.863Z,5.45
2023-11-12T08:42:31.729Z,5.78
2023-11-12T08:45:00.968Z,5.45
2023-11-12T08:47:29.106Z,5.60
2023-11-12T08:49:57.063Z,5.60
2023-11-12T08:52:26.239Z,5.43
2023-11-12T08:54:54.585Z,5.05
2023-11-12T08:57:22.449Z,5.35
2023-11-12T08:59:52.375Z,5.05
2023-11-12T09:02:21.967Z,4.78
2023-11-12T09:04:49.834Z,4.93
2023-11-12T09:07:17.658Z,5.10
2023-11-12T09:09:45.519Z,4.43
2023-11-12T09:12:13.422Z,4.97
2023-11-12T09:14:41.737Z,4.97
2023-11-12T09:17:09.601Z,4.78
2023-11-12T09:19:38.764Z,5.30
2023-11-12T09:22:06.620Z,5.07
2023-11-12T09:24:34.514Z,5.63
2023-11-12T09:27:02.385Z,4.80
2023-11-12T09:29:30.464Z,5.28
2023-11-12T09:31:59.350Z,5.10
2023-11-12T09:34:28.642Z,5.53
2023-11-12T09:36:58.152Z,4.85
2023-11-12T09:39:26.028Z,5.18
2023-11-12T09:41:59.398Z,4.97
2023-11-12T09:44:31.747Z,5.40
2023-11-12T09:47:08.480Z,5.63
2023-11-12T09:49:36.328Z,5.68
2023-11-12T09:52:06.114Z,6.22
2023-11-12T09:54:38.854Z,6.07
2023-11-12T09:57:09.644Z,5.75
2023-11-12T09:59:37.825Z,6.50
2023-11-12T10:02:07.795Z,6.53
2023-11-12T10:04:35.801Z,6.03
2023-11-12T10:07:06.125Z,5.90
2023-11-12T10:09:35.957Z,6.50
2023-11-12T10:12:07.994Z,6.05
2023-11-12T10:14:36.764Z,6.60
2023-11-12T10:17:08.629Z,6.53
2023-11-12T10:19:36.586Z,6.18
2023-11-12T10:22:08.078Z,6.72
2023-11-12T10:24:44.760Z,6.82
2023-11-12T10:27:13.678Z,6.90
2023-11-12T10:29:42.075Z,7.47
2023-11-12T10:32:10.534Z,7.65
2023-11-12T10:34:49.981Z,7.63
2023-11-12T10:37:20.572Z,7.88
2023-11-12T10:39:49.360Z,7.45
2023-11-12T10:42:24.001Z,6.97
2023-11-12T10:44:56.221Z,6.80
2023-11-12T10:47:25.526Z,7.18
2023-11-12T10:49:54.254Z,7.88
2023-11-12T10:52:24.792Z,6.95
2023-11-12T10:54:53.110Z,7.00
2023-11-12T10:57:21.230Z,6.93
2023-11-12T10:59:51.234Z,7.18
2023-11-12T11:02:21.074Z,6.57
2023-11-12T11:04:49.347Z,6.68
2023-11-12T11:07:18.251Z,6.63
2023-11-12T11:09:48.822Z,6.95
2023-11-12T11:12:19.304Z,6.07
2023-11-12T11:14:48.088Z,6.18
2023-11-12T11:17:39.358Z,6.40
2023-11-12T11:20:12.752Z,6.10
2023-11-12T11:22:40.706Z,5.88
2023-11-12T11:25:27.340Z,6.82
2023-11-12T11:28:20.522Z,5.50
2023-11-12T11:31:15.048Z,5.72
2023-11-12T11:33:49.830Z,5.93
2023-11-12T11:36:18.572Z,5.90
2023-11-12T11:39:26.337Z,5.30
2023-11-12T11:42:15.310Z,5.40
2023-11-12T11:44:54.035Z,5.72
2023-11-12T11:47:25.291Z,5.25
2023-11-12T11:50:46.071Z,5.60
2023-11-12T11:53:15.975Z,4.75
2023-11-12T11:55:48.500Z,5.53
2023-11-12T11:58:18.486Z,4.70
2023-11-12T12:01:00.559Z,4.82
2023-11-12T12:03:29.976Z,5.25
2023-11-12T12:05:58.215Z,4.80
2023-11-12T12:08:26.584Z,5.30
2023-11-12T12:10:54.437Z,5.13
2023-11-12T12:13:24.387Z,4.95
2023-11-12T12:15:53.325Z,4.85
2023-11-12T12:18:24.730Z,5.15
2023-11-12T12:20:54.888Z,4.68
2023-11-12T12:23:23.304Z,5.05
2023-11-12T12:25:52.612Z,5.07
2023-11-12T12:28:27.464Z,5.55
2023-11-12T12:30:56.661Z,5.35
2023-11-12T12:33:24.952Z,4.80
2023-11-12T12:35:52.797Z,5.45
2023-11-12T12:38:20.659Z,4.88
2023-11-12T12:40:52.025Z,4.85
2023-11-12T12:43:20.879Z,4.95
2023-11-12T12:45:58.866Z,4.30
2023-11-12T12:48:27.119Z,5.10
2023-11-12T12:51:04.068Z,4.72
2023-11-12T12:53:32.044Z,4.97
2023-11-12T12:56:00.618Z,5.05
2023-11-12T12:58:39.733Z,4.20
2023-11-12T13:01:12.447Z,4.85
2023-11-12T13:03:42.464Z,4.80
2023-11-12T13:06:10.549Z,4.82
2023-11-12T13:08:40.086Z,5.68
2023-11-12T13:11:07.944Z,5.18
2023-11-12T13:13:37.206Z,5.55
2023-11-12T13:16:10.287Z,5.13
2023-11-12T13:18:42.437Z,4.97
2023-11-12T13:21:11.344Z,5.22
2023-11-12T13:23:39.920Z,5.25
2023-11-12T13:26:07.916Z,5.05
2023-11-12T13:28:37.283Z,5.32
2023-11-12T13:31:06.441Z,4.93
2023-11-12T13:33:35.485Z,5.13
2023-11-12T13:36:05.088Z,5.07
2023-11-12T13:38:34.914Z,4.82
2023-11-12T13:41:03.375Z,5.20
2023-11-12T13:43:34.366Z,4.72
2023-11-12T13:46:03.118Z,4.55
2023-11-12T13:48:31.168Z,4.82
2023-11-12T13:50:59.987Z,4.78
2023-11-12T13:53:29.356Z,4.88
2023-11-12T13:56:00.314Z,4.68
2023-11-12T13:58:29.790Z,4.88
2023-11-12T14:00:58.090Z,4.45
2023-11-12T14:03:27.322Z,4.30
2023-11-12T14:05:56.052Z,5.00
2023-11-12T14:08:24.007Z,4.82
2023-11-12T14:10:56.285Z,5.18
2023-11-12T14:13:25.085Z,5.00
2023-11-12T14:15:53.069Z,5.05
2023-11-12T14:18:23.257Z,5.15
2023-11-12T14:20:51.286Z,5.28
2023-11-12T14:23:19.187Z,5.45
2023-11-12T14:25:48.736Z,5.20
2023-11-12T14:28:23.222Z,5.38
2023-11-12T14:30:52.289Z,5.03
2023-11-12T14:33:20.295Z,5.28
2023-11-12T14:35:48.405Z,5.80
2023-11-12T14:38:17.335Z,5.05
2023-11-12T14:40:46.156Z,5.43
2023-11-12T14:43:14.544Z,5.72
2023-11-12T14:45:44.385Z,4.97
2023-11-12T14:48:14.052Z,5.15
2023-11-12T14:50:41.920Z,5.10
2023-11-12T14:53:10.995Z,5.00
2023-11-12T14:55:40.145Z,5.13
2023-11-12T14:58:08.095Z,5.90
2023-11-12T15:00:37.148Z,5.95
2023-11-12T15:03:08.582Z,5.25
2023-11-12T15:05:36.929Z,5.07
2023-11-12T15:08:05.472Z,4.90
2023-11-12T15:10:33.569Z,5.15
2023-11-12T15:13:02.009Z,5.25
2023-11-12T15:15:29.928Z,5.38
2023-11-12T15:17:57.770Z,5.03
2023-11-12T15:20:27.489Z,5.07
2023-11-12T15:22:55.280Z,5.20
2023-11-12T15:25:23.109Z,5.30
2023-11-12T15:27:51.803Z,6.22
2023-11-12T15:30:20.594Z,5.38
2023-11-12T15:32:49.172Z,5.32
2023-11-12T15:35:19.385Z,5.55
2023-11-12T15:37:49.486Z,5.50
2023-11-12T15:40:20.905Z,4.80
2023-11-12T15:42:51.184Z,4.80
2023-11-12T15:45:20.463Z,4.97
2023-11-12T15:47:49.346Z,4.95
2023-11-12T15:50:18.779Z,4.97
2023-11-12T15:52:47.649Z,4.95
2023-11-12T15:55:18.477Z,4.95
2023-11-12T15:57:46.496Z,4.50
2023-11-12T16:00:15.885Z,4.97
2023-11-12T16:02:45.388Z,4.95
2023-11-12T16:05:14.234Z,4.65
2023-11-12T16:07:42.594Z,5.47
2023-11-12T16:10:11.703Z,4.75
2023-11-12T16:12:41.314Z,5.20
2023-11-12T16:15:14.037Z,5.05
2023-11-12T16:17:43.505Z,5.05
2023-11-12T16:20:13.256Z,5.35
2023-11-12T16:22:41.658Z,5.70
2023-11-12T16:25:10.779Z,5.80
2023-11-12T16:27:39.053Z,5.53
2023-11-12T16:30:09.528Z,6.05
2023-11-12T16:32:38.088Z,5.90
2023-11-12T16:35:06.730Z,6.05
2023-11-12T16:37:35.462Z,5.63
2023-11-12T16:40:04.944Z,5.25
2023-11-12T16:42:32.870Z,5.93
2023-11-12T16:45:00.641Z,5.65
2023-11-12T16:47:29.838Z,6.38
2023-11-12T16:49:57.946Z,6.05
2023-11-12T16:52:25.792Z,6.05
2023-11-12T16:54:54.822Z,6.25
2023-11-12T16:57:22.766Z,6.22
2023-11-12T16:59:51.568Z,5.97
2023-11-12T17:02:21.872Z,6.10
2023-11-12T17:04:51.213Z,6.03
2023-11-12T17:07:19.012Z,6.82
2023-11-12T17:09:46.978Z,6.57
2023-11-12T17:12:14.965Z,6.93
2023-11-12T17:14:43.031Z,6.75
2023-11-12T17:17:13.308Z,6.55
2023-11-12T17:19:41.492Z,7.00
2023-11-12T17:22:10.991Z,6.88
2023-11-12T17:24:38.963Z,6.97
2023-11-12T17:27:07.593Z,7.22
2023-11-12T17:29:35.404Z,7.75
2023-11-12T17:32:04.352Z,7.07
2023-11-12T17:34:32.272Z,6.95
2023-11-12T17:37:00.782Z,6.78
2023-11-12T17:39:29.993Z,7.47
2023-11-12T17:41:58.775Z,6.57
2023-11-12T17:44:27.218Z,7.32
2023-11-12T17:46:58.183Z,7.25
2023-11-12T17:49:26.130Z,7.47
2023-11-12T17:51:54.535Z,7.93
2023-11-12T17:54:22.465Z,8.07
2023-11-12T17:56:51.667Z,8.60
2023-11-12T17:59:20.583Z,8.20
2023-11-12T18:01:49.663Z,8.13
2023-11-12T18:04:18.787Z,8.57
2023-11-12T18:06:48.779Z,9.05
2023-11-12T18:09:18.999Z,9.32
2023-11-12T18:11:47.169Z,9.23
2023-11-12T18:14:16.886Z,10.10
2023-11-12T18:16:45.814Z,8.88
2023-11-12T18:19:14.640Z,8.82
2023-11-12T18:21:43.568Z,9.27
2023-11-12T18:24:12.385Z,8.95
2023-11-12T18:26:40.841Z,9.65
2023-11-12T18:29:08.753Z,10.15
2023-11-12T18:31:39.286Z,9.80
2023-11-12T18:34:09.072Z,9.60
2023-11-12T18:36:37.435Z,10.43
2023-11-12T18:39:06.930Z,10.02
2023-11-12T18:41:38.093Z,9.25
2023-11-12T18:44:07.522Z,10.18
2023-11-12T18:46:35.888Z,9.40
2023-11-12T18:49:05.304Z,10.57
2023-11-12T18:51:33.152Z,10.05
2023-11-12T18:54:01.030Z,10.20
2023-11-12T18:56:28.839Z,10.70
2023-11-12T18:58:57.810Z,10.98
2023-11-12T19:01:26.232Z,10.70
2023-11-12T19:03:54.305Z,10.75
2023-11-12T19:06:24.550Z,11.68
2023-11-12T19:08:52.361Z,11.77
2023-11-12T19:11:20.459Z,11.32
2023-11-12T19:13:48.247Z,11.88
2023-11-12T19:16:16.822Z,11.88
2023-11-12T19:18:44.816Z,11.05
2023-11-12T19:21:12.633Z,11.52
2023-11-12T19:23:41.839Z,11.55
2023-11-12T19:26:10.570Z,11.65
2023-11-12T19:28:38.414Z,11.15
2023-11-12T19:31:07.814Z,11.55
2023-11-12T19:33:37.576Z,11.27
2023-11-12T19:36:05.678Z,11.63
2023-11-12T19:38:37.922Z,11.13
2023-11-12T19:41:07.346Z,11.63
2023-11-12T19:43:36.568Z,10.95
2023-11-12T19:46:05.449Z,11.48
2023-11-12T19:48:36.291Z,10.88
2023-11-12T19:51:04.818Z,10.80
2023-11-12T19:53:32.553Z,11.00
2023-11-12T19:56:00.581Z,11.13
2023-11-12T19:58:29.667Z,10.98
2023-11-12T20:00:58.676Z,11.35
2023-11-12T20:03:26.875Z,10.63
2023-11-12T20:05:54.734Z,11.32
2023-11-12T20:08:23.398Z,10.57
2023-11-12T20:10:51.401Z,11.00
2023-11-12T20:13:19.301Z,11.68
2023-11-12T20:15:48.665Z,11.32
2023-11-12T20:18:16.567Z,10.38
2023-11-12T20:20:44.624Z,10.98
2023-11-12T20:23:14.602Z,10.57
2023-11-12T20:25:42.434Z,11.52
2023-11-12T20:28:14.759Z,10.98
2023-11-12T20:30:46.239Z,10.80
2023-11-12T20:33:16.128Z,10.52
2023-11-12T20:35:48.149Z,11.27
2023-11-12T20:38:16.309Z,10.85
2023-11-12T20:40:44.312Z,11.15
2023-11-12T20:43:12.491Z,11.40
2023-11-12T20:45:41.846Z,11.98
2023-11-12T20:48:10.332Z,10.98
2023-11-12T20:50:40.929Z,11.50
2023-11-12T20:53:09.682Z,12.00
2023-11-12T20:55:40.074Z,11.77
2023-11-12T20:58:08.573Z,12.20
2023-11-12T21:00:37.031Z,11.70
2023-11-12T21:03:05.980Z,11.85
2023-11-12T21:05:33.874Z,11.45
2023-11-12T21:08:03.629Z,11.88
2023-11-12T21:10:35.825Z,11.68
2023-11-12T21:13:04.368Z,10.90
2023-11-12T21:15:33.636Z,11.48
2023-11-12T21:18:01.526Z,11.23
2023-11-12T21:20:29.624Z,11.50
2023-11-12T21:22:59.073Z,11.13
2023-11-12T21:25:28.672Z,10.77
2023-11-12T21:27:56.492Z,10.68
2023-11-12T21:30:27.183Z,11.25
2023-11-12T21:32:58.346Z,10.27
2023-11-12T21:35:27.637Z,10.98
2023-11-12T21:37:55.436Z,11.63
2023-11-12T21:40:23.326Z,10.48
2023-11-12T21:42:53.811Z,10.82
2023-11-12T21:45:29.290Z,10.65
2023-11-12T21:47:57.316Z,10.38
2023-11-12T21:50:26.902Z,10.98
2023-11-12T21:52:58.523Z,9.48
2023-11-12T21:55:27.265Z,10.60
2023-11-12T21:57:57.477Z,10.70
2023-11-12T22:00:28.251Z,10.45
2023-11-12T22:02:58.738Z,10.40
2023-11-12T22:05:28.754Z,9.80
2023-11-12T22:07:57.309Z,9.63
2023-11-12T22:10:25.346Z,9.55
2023-11-12T22:12:53.493Z,9.93
2023-11-12T22:15:23.107Z,9.80
2023-11-12T22:17:52.706Z,8.98
2023-11-12T22:20:20.826Z,9.80
2023-11-12T22:22:49.358Z,9.75
2023-11-12T22:25:17.519Z,9.27
2023-11-12T22:27:47.448Z,9.60
2023-11-12T22:30:17.123Z,9.95
2023-11-12T22:32:47.919Z,9.73
2023-11-12T22:35:16.535Z,9.93
2023-11-12T22:37:44.653Z,9.65
2023-11-12T22:40:13.810Z,9.77
2023-11-12T22:42:41.721Z,9.13
2023-11-12T22:45:13.689Z,9.25
2023-11-12T22:47:42.367Z,10.10
2023-11-12T22:50:13.927Z,9.95
2023-11-12T22:52:41.934Z,9.88
2023-11-12T22:55:11.730Z,10.10
2023-11-12T22:57:40.922Z,9.50
2023-11-12T23:00:36.901Z,9.68
2023-11-12T23:03:13.618Z,9.30
2023-11-12T23:05:43.698Z,9.95
2023-11-12T23:08:11.758Z,9.45
2023-11-12T23:10:40.693Z,9.93
2023-11-12T23:13:09.397Z,8.88
2023-11-12T23:15:37.553Z,10.00
2023-11-12T23:18:05.870Z,9.75
2023-11-12T23:20:34.813Z,9.90
2023-11-12T23:23:04.444Z,9.27
2023-11-12T23:25:33.324Z,9.90
2023-11-12T23:28:02.084Z,8.68
2023-11-12T23:30:32.446Z,9.13
2023-11-12T23:33:00.717Z,9.68
2023-11-12T23:35:31.016Z,10.50
2023-11-12T23:38:00.079Z,9.60
2023-11-12T23:40:29.246Z,9.63
2023-11-12T23:42:57.247Z,9.50
2023-11-12T23:45:25.043Z,10.48
2023-11-12T23:47:53.174Z,10.70
2023-11-12T23:50:25.364Z,9.93
2023-11-12T23:52:53.486Z,10.77
2023-11-12T23:55:22.200Z,10.18
2023-11-12T23:57:52.856Z,11.32
